Time;durP1;ratioP1;P1;durP2;ratioP2;P2;SDS_P1;SDS_P2;PMS_P1;PMS_P2;Temp;Humidity;BMP_temperature;BMP_pressure;BME280_temperature;BME280_humidity;BME280_pressure;Samples;Min_cycle;Max_cycle;Signal;HPM_P1;HPM_P2
2022/12/22 03:27:27;;;;;;;60.90;21.98;;;7.70;99.90;;;;;;5102081;28;20278;-80
2022/12/22 03:29:54;;;;;;;65.18;22.35;;;7.70;99.90;;;;;;5097301;28;20115;-80
2022/12/22 03:32:20;;;;;;;64.32;22.73;;;7.70;99.90;;;;;;5113748;28;20105;-80
2022/12/22 03:34:47;;;;;;;64.97;21.67;;;7.70;99.90;;;;;;5076829;28;20041;-80
2022/12/22 03:37:14;;;;;;;71.32;21.00;;;7.70;99.90;;;;;;5070753;28;20036;-80
2022/12/22 03:39:41;;;;;;;66.07;22.13;;;7.70;99.90;;;;;;5060246;28;20052;-80
2022/12/22 03:47:41;;;;;;;65.93;21.08;;;7.70;99.90;;;;;;5095555;28;20083;-80
2022/12/22 03:50:08;;;;;;;55.80;20.42;;;7.80;99.90;;;;;;5059822;28;20146;-80
2022/12/22 03:52:35;;;;;;;60.83;20.25;;;7.70;99.90;;;;;;5083341;28;20043;-80
2022/12/22 03:55:01;;;;;;;76.03;20.52;;;7.70;99.90;;;;;;5096781;28;20040;-80
2022/12/22 03:57:31;;;;;;;85.22;21.33;;;7.70;99.90;;;;;;5085200;28;20122;-80
2022/12/22 03:59:58;;;;;;;88.30;22.80;;;7.70;99.90;;;;;;5099601;28;20458;-80
2022/12/22 04:02:24;;;;;;;80.53;20.55;;;7.70;99.90;;;;;;5118404;28;20123;-80
2022/12/22 04:04:52;;;;;;;66.05;21.40;;;7.70;99.90;;;;;;5096843;28;20082;-80
2022/12/22 04:07:19;;;;;;;55.55;20.25;;;7.70;99.90;;;;;;5083830;28;20032;-80
2022/12/22 04:15:29;;;;;;;58.27;20.50;;;7.70;99.90;;;;;;5136180;28;20051;-80
2022/12/22 04:17:57;;;;;;;69.13;21.35;;;7.70;99.90;;;;;;5130946;28;20286;-80
2022/12/22 04:20:25;;;;;;;53.08;20.20;;;7.70;99.90;;;;;;5099797;28;20046;-80
2022/12/22 04:22:54;;;;;;;76.90;21.77;;;7.80;99.90;;;;;;5133225;28;20403;-80
2022/12/22 04:25:22;;;;;;;57.83;19.83;;;7.70;99.90;;;;;;5132987;28;20047;-80
2022/12/22 04:27:48;;;;;;;60.40;20.33;;;7.80;99.90;;;;;;5098588;28;20031;-80
2022/12/22 04:30:15;;;;;;;57.17;20.65;;;7.70;99.90;;;;;;5099331;28;20036;-80
2022/12/22 04:32:42;;;;;;;53.05;20.02;;;7.70;99.90;;;;;;5099474;28;20045;-80
2022/12/22 04:35:10;;;;;;;51.45;19.27;;;7.80;99.90;;;;;;5133051;28;20044;-80
2022/12/22 04:37:37;;;;;;;45.55;19.25;;;7.70;99.90;;;;;;5096395;28;20045;-80
2022/12/22 04:40:04;;;;;;;55.40;20.17;;;7.80;99.90;;;;;;5093872;28;20502;-80
2022/12/22 04:42:31;;;;;;;54.28;19.73;;;7.70;99.90;;;;;;5112241;28;20503;-80
2022/12/22 04:44:58;;;;;;;58.15;20.08;;;7.70;99.90;;;;;;5078907;28;20074;-80
2022/12/22 04:47:24;;;;;;;51.95;19.15;;;7.80;99.90;;;;;;5078931;28;20040;-80
2022/12/22 04:49:54;;;;;;;51.65;18.38;;;7.80;99.90;;;;;;5078765;28;20044;-80
2022/12/22 04:52:21;;;;;;;51.65;19.83;;;7.70;99.90;;;;;;5112181;28;20101;-80
2022/12/22 04:54:47;;;;;;;54.22;18.23;;;7.70;99.90;;;;;;5092417;28;20044;-80
2022/12/22 04:57:15;;;;;;;59.03;19.50;;;7.70;99.90;;;;;;5078655;28;20046;-81
2022/12/22 04:59:42;;;;;;;53.63;18.55;;;7.70;99.90;;;;;;5101506;28;20093;-80
2022/12/22 05:02:08;;;;;;;37.88;17.17;;;7.60;99.90;;;;;;5119240;28;20062;-80
2022/12/22 05:04:35;;;;;;;42.15;17.95;;;7.60;99.90;;;;;;5114102;28;20032;-80
2022/12/22 05:07:02;;;;;;;42.10;18.50;;;7.60;99.90;;;;;;5096408;28;20073;-80
2022/12/22 05:09:29;;;;;;;36.10;17.13;;;7.50;99.90;;;;;;5078143;28;20089;-80
2022/12/22 05:11:55;;;;;;;57.85;19.00;;;7.50;99.90;;;;;;5095038;28;20094;-80
2022/12/22 05:14:22;;;;;;;43.97;18.00;;;7.50;99.90;;;;;;5111438;28;20658;-80
2022/12/22 05:16:49;;;;;;;41.90;17.08;;;7.50;99.90;;;;;;5078719;28;20044;-80
2022/12/22 05:19:16;;;;;;;39.00;17.08;;;7.40;99.90;;;;;;5111833;28;20040;-81
2022/12/22 05:21:43;;;;;;;45.33;18.13;;;7.50;99.90;;;;;;5094946;28;20051;-80
2022/12/22 05:24:10;;;;;;;38.80;17.83;;;7.50;99.90;;;;;;5078185;28;20396;-80
2022/12/22 05:26:37;;;;;;;46.80;18.88;;;7.50;99.90;;;;;;5078414;28;20105;-80
2022/12/22 05:29:04;;;;;;;42.22;17.90;;;7.60;99.90;;;;;;5094711;28;20040;-80
2022/12/22 05:31:30;;;;;;;47.58;17.73;;;7.70;99.90;;;;;;5078109;28;20047;-80
2022/12/22 05:33:57;;;;;;;34.83;16.60;;;7.50;99.90;;;;;;5111349;28;20032;-80
2022/12/22 05:36:24;;;;;;;45.75;18.75;;;7.50;99.90;;;;;;5111006;28;20555;-80
2022/12/22 05:38:51;;;;;;;46.88;18.17;;;7.60;99.90;;;;;;5090605;28;20052;-80
2022/12/22 05:41:17;;;;;;;46.67;17.55;;;7.60;99.90;;;;;;5090768;28;20045;-80
2022/12/22 05:43:44;;;;;;;60.28;19.35;;;7.60;99.90;;;;;;5091037;28;20082;-80
2022/12/22 05:46:11;;;;;;;57.33;18.95;;;7.60;99.90;;;;;;5090729;28;20036;-80
2022/12/22 05:48:38;;;;;;;65.13;19.65;;;7.60;99.90;;;;;;5090278;28;20056;-80
2022/12/22 05:51:07;;;;;;;61.67;19.70;;;7.60;99.90;;;;;;5090686;28;20048;-80
2022/12/22 05:53:34;;;;;;;45.25;17.85;;;7.50;99.90;;;;;;5107410;28;20428;-80
2022/12/22 05:56:02;;;;;;;49.95;18.27;;;7.60;99.90;;;;;;5090867;28;20102;-80
2022/12/22 05:58:29;;;;;;;52.17;19.40;;;7.60;99.90;;;;;;5090822;28;20040;-80
2022/12/22 06:00:57;;;;;;;61.25;20.33;;;7.50;99.90;;;;;;5090840;28;20036;-80
2022/12/22 06:03:25;;;;;;;45.63;18.13;;;7.50;99.90;;;;;;5090474;28;20045;-81
2022/12/22 06:05:53;;;;;;;54.47;19.50;;;7.10;99.90;;;;;;5073914;28;20045;-80
2022/12/22 06:08:20;;;;;;;71.43;20.13;;;7.60;99.90;;;;;;5074004;28;20119;-80
2022/12/22 06:10:47;;;;;;;52.60;19.70;;;7.60;99.90;;;;;;5099026;28;20569;-80
2022/12/22 06:13:13;;;;;;;56.20;20.00;;;7.60;99.90;;;;;;5107153;28;20386;-80
2022/12/22 06:15:40;;;;;;;71.97;20.75;;;7.60;99.90;;;;;;5090355;28;20048;-80
2022/12/22 06:18:07;;;;;;;56.20;19.95;;;7.60;99.90;;;;;;5073688;28;20127;-80
2022/12/22 06:20:34;;;;;;;62.92;20.08;;;7.60;99.90;;;;;;5060490;28;20572;-83
2022/12/22 06:23:00;;;;;;;63.10;20.70;;;7.60;99.90;;;;;;5090706;28;20056;-80
2022/12/22 06:25:27;;;;;;;70.40;20.77;;;7.60;99.90;;;;;;5090190;28;20043;-81
2022/12/22 06:27:54;;;;;;;60.40;19.38;;;7.60;99.90;;;;;;5106640;28;20132;-80
2022/12/22 06:30:21;;;;;;;56.72;18.65;;;7.40;99.90;;;;;;5089842;28;20048;-80
2022/12/22 06:32:48;;;;;;;64.43;19.67;;;7.40;99.90;;;;;;5090203;28;20059;-80
2022/12/22 06:35:15;;;;;;;63.80;19.42;;;7.40;99.90;;;;;;5074132;28;20048;-80
2022/12/22 06:37:42;;;;;;;74.65;19.98;;;7.30;99.90;;;;;;5073816;28;20078;-80
2022/12/22 06:40:09;;;;;;;65.25;19.48;;;7.30;99.90;;;;;;5073640;28;20041;-80
2022/12/22 06:45:22;;;;;;;62.22;20.05;;;7.30;99.90;;;;;;5098533;28;20055;-80
2022/12/22 06:47:48;;;;;;;111.43;19.48;;;7.20;99.90;;;;;;5093293;28;20539;-80
2022/12/22 06:50:15;;;;;;;49.50;16.90;;;7.20;99.90;;;;;;5075802;28;20404;-80
2022/12/22 06:52:43;;;;;;;51.75;17.60;;;7.10;99.90;;;;;;5076810;28;20062;-81
2022/12/22 06:55:10;;;;;;;110.90;18.70;;;7.10;99.90;;;;;;5126993;28;20051;-80
2022/12/22 06:57:38;;;;;;;45.00;15.25;;;7.10;99.90;;;;;;5076729;28;20048;-80
2022/12/22 07:00:05;;;;;;;64.63;16.80;;;7.00;99.90;;;;;;5076662;28;20503;-80
2022/12/22 07:02:32;;;;;;;44.45;15.43;;;6.90;99.90;;;;;;5090077;28;20041;-80
2022/12/22 07:04:58;;;;;;;49.80;15.57;;;6.80;99.90;;;;;;5072810;28;20056;-80
2022/12/22 07:07:25;;;;;;;73.05;15.77;;;6.70;99.90;;;;;;5106244;28;20186;-80
2022/12/22 07:09:54;;;;;;;34.10;14.45;;;6.60;99.90;;;;;;5073058;28;20037;-80
2022/12/22 07:12:22;;;;;;;56.78;15.50;;;6.50;99.90;;;;;;5091488;28;20040;-80
2022/12/22 07:14:49;;;;;;;41.65;16.00;;;6.40;99.90;;;;;;5089443;28;20149;-80
2022/12/22 07:17:16;;;;;;;32.78;13.35;;;6.30;99.90;;;;;;5106188;28;20405;-80
2022/12/22 07:19:43;;;;;;;34.25;13.32;;;6.30;99.90;;;;;;5072274;28;20051;-80
2022/12/22 07:22:10;;;;;;;44.58;15.52;;;6.20;99.90;;;;;;5089901;28;20037;-80
2022/12/22 07:24:37;;;;;;;76.70;15.88;;;6.10;99.90;;;;;;5092635;28;20043;-80
2022/12/22 07:27:04;;;;;;;203.57;16.55;;;6.10;99.90;;;;;;5076691;28;20036;-80
2022/12/22 07:29:31;;;;;;;36.20;13.65;;;6.00;99.90;;;;;;5110021;28;20043;-80
2022/12/22 07:31:58;;;;;;;30.77;11.73;;;5.90;99.90;;;;;;5109100;28;20044;-80
2022/12/22 07:34:25;;;;;;;87.13;13.40;;;5.90;99.90;;;;;;5084192;28;20452;-80
2022/12/22 07:36:51;;;;;;;36.47;11.48;;;5.80;99.90;;;;;;5087464;28;20040;-80
2022/12/22 07:39:18;;;;;;;52.10;12.48;;;5.70;99.90;;;;;;5124942;28;20556;-80
2022/12/22 07:44:30;;;;;;;21.67;9.00;;;5.60;99.90;;;;;;5103629;28;20562;-80
2022/12/22 07:46:57;;;;;;;20.70;8.57;;;5.80;99.90;;;;;;5101064;28;20048;-80
2022/12/22 07:52:08;;;;;;;19.52;8.05;;;5.40;99.90;;;;;;5126172;28;20044;-80
2022/12/22 07:54:36;;;;;;;24.80;8.32;;;5.30;99.90;;;;;;5100105;28;20069;-80
2022/12/22 07:57:02;;;;;;;24.70;8.85;;;5.30;99.90;;;;;;5117490;28;20040;-79
2022/12/22 07:59:29;;;;;;;28.40;9.25;;;5.30;99.90;;;;;;5095775;28;20119;-79
2022/12/22 08:01:56;;;;;;;18.95;7.50;;;5.60;99.90;;;;;;5117514;28;20416;-79
2022/12/22 08:04:23;;;;;;;31.63;8.48;;;5.20;99.90;;;;;;5103546;28;20028;-79
2022/12/22 08:06:49;;;;;;;19.52;8.68;;;5.10;99.90;;;;;;5092406;28;20041;-79
2022/12/22 08:09:18;;;;;;;30.02;9.65;;;5.10;99.90;;;;;;5092116;28;20032;-79
2022/12/22 08:11:45;;;;;;;24.90;9.88;;;5.10;99.90;;;;;;5085115;28;20043;-79
2022/12/22 08:14:12;;;;;;;27.98;10.73;;;5.10;99.90;;;;;;5081798;28;20040;-79
2022/12/22 08:16:39;;;;;;;30.88;10.80;;;5.10;99.90;;;;;;5064321;28;20051;-79
2022/12/22 08:19:06;;;;;;;29.10;10.43;;;5.10;99.90;;;;;;5080226;28;20068;-79
2022/12/22 08:21:32;;;;;;;33.40;10.73;;;5.10;99.90;;;;;;5113202;28;20039;-78
2022/12/22 08:23:59;;;;;;;42.65;12.27;;;5.20;99.90;;;;;;5079467;28;20040;-78
2022/12/22 08:26:32;;;;;;;38.58;12.20;;;5.40;99.90;;;;;;5096120;28;20071;-78
2022/12/22 08:29:07;;;;;;;42.15;13.10;;;5.50;99.90;;;;;;5112362;28;20036;-78
2022/12/22 08:31:34;;;;;;;40.75;12.07;;;5.60;99.90;;;;;;5110441;28;20601;-77
2022/12/22 08:34:05;;;;;;;41.20;11.75;;;5.70;99.90;;;;;;5091928;28;20124;-77
2022/12/22 08:36:36;;;;;;;43.58;11.68;;;5.80;99.90;;;;;;5108984;28;20157;-78
2022/12/22 08:39:03;;;;;;;41.88;12.10;;;5.90;99.90;;;;;;5092354;28;20041;-77
2022/12/22 08:41:49;;;;;;;42.58;12.07;;;5.90;99.90;;;;;;5077574;28;20131;-78
2022/12/22 08:44:24;;;;;;;38.25;11.45;;;5.90;99.90;;;;;;5112407;28;20104;-78
2022/12/22 08:46:52;;;;;;;36.27;10.87;;;6.00;99.90;;;;;;5112053;28;20490;-78
2022/12/22 08:49:19;;;;;;;45.67;12.65;;;6.00;99.90;;;;;;5125033;28;20055;-77
2022/12/22 08:51:47;;;;;;;45.35;12.70;;;6.00;99.90;;;;;;5115776;28;20495;-78
2022/12/22 08:54:14;;;;;;;41.33;12.23;;;6.10;99.90;;;;;;5097937;28;20443;-78
2022/12/22 08:56:41;;;;;;;30.65;10.95;;;6.10;99.90;;;;;;5091949;28;20099;-78
2022/12/22 08:59:08;;;;;;;38.63;11.48;;;6.10;99.90;;;;;;5105788;28;20040;-78
2022/12/22 09:01:49;;;;;;;32.72;11.18;;;6.00;99.90;;;;;;5095540;28;20047;-80
2022/12/22 09:04:18;;;;;;;41.10;11.35;;;6.00;99.90;;;;;;5112597;28;20097;-80
2022/12/22 09:06:45;;;;;;;28.63;9.48;;;6.00;99.90;;;;;;5112102;28;20075;-80
2022/12/22 09:09:13;;;;;;;37.05;10.20;;;5.90;99.90;;;;;;5128865;28;20576;-80
2022/12/22 09:11:46;;;;;;;34.03;9.80;;;5.90;99.90;;;;;;5112173;28;20040;-80
2022/12/22 09:14:13;;;;;;;35.70;10.23;;;5.90;99.90;;;;;;5111469;28;20507;-80
2022/12/22 09:16:40;;;;;;;30.70;9.45;;;6.00;99.90;;;;;;5112383;28;20097;-80
2022/12/22 09:19:07;;;;;;;37.28;10.07;;;5.90;99.90;;;;;;5112156;28;20036;-80
2022/12/22 09:21:35;;;;;;;27.83;9.90;;;5.90;99.90;;;;;;5091604;28;20032;-80
2022/12/22 09:24:03;;;;;;;29.15;9.73;;;6.10;99.90;;;;;;5111764;28;20050;-79
2022/12/22 09:26:31;;;;;;;30.02;9.32;;;5.70;99.90;;;;;;5111896;28;20131;-80
2022/12/22 09:28:57;;;;;;;29.88;10.00;;;5.20;99.90;;;;;;5128597;28;20489;-81
2022/12/22 09:31:25;;;;;;;32.35;9.63;;;5.80;99.90;;;;;;5095227;28;20123;-80
2022/12/22 09:33:51;;;;;;;27.92;9.43;;;5.70;99.90;;;;;;5094821;28;20044;-78
2022/12/22 09:36:22;;;;;;;25.63;8.85;;;5.70;99.90;;;;;;5095327;28;20036;-78
2022/12/22 09:38:48;;;;;;;30.10;9.50;;;5.70;99.90;;;;;;5111720;28;20123;-78
2022/12/22 09:41:30;;;;;;;28.40;9.55;;;5.70;99.90;;;;;;5111388;28;20086;-78
2022/12/22 09:44:02;;;;;;;23.08;8.70;;;5.70;99.90;;;;;;5111674;28;20063;-78
2022/12/22 09:46:32;;;;;;;32.58;9.77;;;5.80;99.90;;;;;;5111588;28;20434;-78
2022/12/22 09:48:59;;;;;;;32.83;10.02;;;5.70;99.90;;;;;;5128113;28;20056;-78
2022/12/22 09:51:27;;;;;;;33.33;9.77;;;5.70;99.90;;;;;;5111747;28;20549;-78
2022/12/22 09:53:58;;;;;;;33.20;9.30;;;5.80;99.90;;;;;;5111375;28;20044;-78
2022/12/22 09:56:27;;;;;;;27.80;8.38;;;5.80;99.90;;;;;;5128211;28;20044;-78
2022/12/22 09:58:54;;;;;;;26.85;8.27;;;5.80;99.90;;;;;;5128449;28;20040;-78
2022/12/22 10:01:46;;;;;;;23.75;8.02;;;5.80;99.90;;;;;;5111090;28;20070;-78
2022/12/22 10:04:37;;;;;;;29.63;8.35;;;5.80;99.90;;;;;;5111178;28;20420;-78
2022/12/22 10:07:30;;;;;;;27.83;7.57;;;5.90;99.90;;;;;;5127913;28;20124;-78
2022/12/22 10:10:11;;;;;;;40.97;8.82;;;5.90;99.90;;;;;;5111434;28;20073;-79
2022/12/22 10:12:38;;;;;;;25.02;7.72;;;5.90;99.90;;;;;;5111291;28;20040;-78
2022/12/22 10:15:10;;;;;;;29.33;8.80;;;6.00;99.90;;;;;;5110960;28;20043;-79
2022/12/22 10:17:38;;;;;;;27.17;9.02;;;6.00;99.90;;;;;;5111318;28;20039;-78
2022/12/22 10:20:13;;;;;;;21.98;7.72;;;6.00;99.90;;;;;;5110804;28;20412;-78
2022/12/22 10:23:01;;;;;;;23.38;7.68;;;6.00;99.90;;;;;;5110968;28;20094;-78
2022/12/22 10:25:34;;;;;;;23.25;7.63;;;6.00;99.90;;;;;;5110881;28;20043;-78
2022/12/22 10:28:06;;;;;;;26.00;7.70;;;6.10;99.90;;;;;;5111149;28;20051;-78
2022/12/22 10:30:36;;;;;;;24.75;8.07;;;6.10;99.90;;;;;;5110781;28;20446;-78
2022/12/22 10:33:09;;;;;;;20.52;7.72;;;6.20;99.90;;;;;;5127551;28;20036;-78
2022/12/22 10:35:56;;;;;;;22.77;7.60;;;6.20;99.90;;;;;;5110677;28;20131;-78
2022/12/22 10:39:14;;;;;;;23.50;7.53;;;6.00;99.90;;;;;;5110573;28;20059;-78
2022/12/22 10:41:47;;;;;;;21.33;6.65;;;6.30;99.90;;;;;;5067424;28;20496;-78
2022/12/22 10:44:22;;;;;;;15.05;5.75;;;6.40;99.90;;;;;;5110500;28;20052;-78
2022/12/22 10:46:50;;;;;;;14.48;5.72;;;6.30;99.90;;;;;;5110528;28;20154;-78
2022/12/22 10:49:25;;;;;;;18.75;6.57;;;6.40;99.90;;;;;;5110465;28;20507;-78
2022/12/22 10:52:16;;;;;;;15.52;5.68;;;6.40;99.90;;;;;;5110752;28;20043;-78
2022/12/22 10:54:44;;;;;;;15.95;6.03;;;6.50;99.90;;;;;;5127592;28;20043;-78
2022/12/22 10:57:13;;;;;;;17.80;7.40;;;6.40;99.90;;;;;;5110306;28;20071;-78
2022/12/22 10:59:52;;;;;;;16.40;6.65;;;6.40;99.90;;;;;;5110390;28;20093;-78
2022/12/22 11:02:18;;;;;;;20.55;6.80;;;6.30;99.90;;;;;;5094253;28;20039;-78
2022/12/22 11:04:45;;;;;;;23.55;6.65;;;6.60;99.90;;;;;;5110593;28;20040;-78
2022/12/22 11:07:12;;;;;;;20.50;6.63;;;6.60;99.90;;;;;;5127015;28;20036;-78
2022/12/22 11:09:39;;;;;;;26.63;7.45;;;6.60;99.90;;;;;;5110408;28;20496;-78
2022/12/22 11:12:33;;;;;;;16.00;6.20;;;6.70;99.90;;;;;;5093927;28;20040;-78
2022/12/22 11:15:25;;;;;;;19.08;6.38;;;6.70;99.90;;;;;;5110203;28;20519;-78
2022/12/22 11:18:10;;;;;;;16.13;5.85;;;6.90;99.90;;;;;;5110370;28;20047;-78
2022/12/22 11:20:51;;;;;;;24.67;10.63;;;7.10;99.90;;;;;;5127285;28;20516;-78
2022/12/22 11:23:33;;;;;;;33.03;15.27;;;7.10;99.90;;;;;;5098038;28;20113;-79
2022/12/22 11:26:08;;;;;;;27.50;12.10;;;7.10;99.90;;;;;;5125647;28;20054;-79
2022/12/22 11:28:58;;;;;;;24.23;11.88;;;7.00;99.90;;;;;;5110101;28;20035;-79
2022/12/22 11:31:40;;;;;;;21.77;8.88;;;7.00;99.90;;;;;;5110023;28;20485;-79
2022/12/22 11:34:39;;;;;;;16.10;5.90;;;6.90;99.90;;;;;;5110414;28;20079;-79
2022/12/22 11:37:22;;;;;;;13.68;5.50;;;6.90;99.90;;;;;;5113849;28;20055;-79
2022/12/22 11:39:57;;;;;;;13.35;5.82;;;6.80;99.90;;;;;;5114332;28;20048;-79
2022/12/22 11:42:57;;;;;;;14.48;5.15;;;6.80;99.90;;;;;;5113793;28;20060;-79
2022/12/22 11:45:58;;;;;;;11.43;5.65;;;6.70;99.90;;;;;;5113782;28;20385;-79
2022/12/22 11:49:02;;;;;;;14.23;5.82;;;6.70;99.90;;;;;;5113983;28;20044;-79
2022/12/22 11:51:44;;;;;;;13.82;5.63;;;6.80;99.90;;;;;;5073556;28;20481;-79
2022/12/22 11:54:39;;;;;;;17.13;6.38;;;6.80;99.90;;;;;;5073814;28;20044;-79
2022/12/22 11:57:21;;;;;;;17.08;6.40;;;6.90;99.90;;;;;;5073444;28;20048;-79
2022/12/22 12:00:10;;;;;;;17.08;6.47;;;6.90;99.90;;;;;;5073537;28;20045;-78
2022/12/22 12:03:12;;;;;;;19.90;5.90;;;6.90;99.90;;;;;;5073653;28;20048;-79
2022/12/22 12:06:02;;;;;;;19.27;5.88;;;7.00;99.90;;;;;;5073315;28;20041;-79
2022/12/22 12:08:34;;;;;;;14.77;5.40;;;7.00;99.90;;;;;;5073902;28;20037;-79
2022/12/22 12:11:27;;;;;;;15.10;5.22;;;7.10;99.90;;;;;;5089765;28;20394;-79
2022/12/22 12:14:12;;;;;;;16.23;4.72;;;7.20;99.90;;;;;;5073095;28;20451;-79
2022/12/22 12:16:50;;;;;;;15.40;4.70;;;7.20;99.90;;;;;;5089715;28;20055;-79
2022/12/22 12:19:41;;;;;;;19.13;4.63;;;7.30;99.90;;;;;;5089595;28;20087;-79
2022/12/22 12:22:26;;;;;;;14.35;5.10;;;7.30;99.90;;;;;;5089818;28;20048;-79
2022/12/22 12:25:10;;;;;;;13.65;4.57;;;7.30;99.90;;;;;;5073092;28;20045;-79
2022/12/22 12:27:58;;;;;;;12.15;4.28;;;7.30;99.90;;;;;;5089679;28;20048;-79
2022/12/22 12:30:32;;;;;;;11.07;3.90;;;7.40;99.90;;;;;;5089240;28;20048;-79
2022/12/22 12:33:25;;;;;;;10.38;3.97;;;7.40;99.90;;;;;;5073007;28;20163;-78
2022/12/22 12:36:27;;;;;;;12.75;5.47;;;7.50;99.90;;;;;;5072718;28;20041;-79
2022/12/22 12:39:13;;;;;;;13.68;4.28;;;7.40;99.90;;;;;;5072661;28;20048;-79
2022/12/22 12:42:04;;;;;;;13.82;5.38;;;7.60;99.90;;;;;;5089067;28;20044;-79
2022/12/22 12:44:35;;;;;;;10.50;4.35;;;7.60;99.90;;;;;;5072302;28;20040;-79
2022/12/22 12:47:24;;;;;;;12.45;4.30;;;7.50;99.90;;;;;;5088136;28;20041;-79
2022/12/22 12:49:57;;;;;;;16.13;4.57;;;7.50;99.90;;;;;;5092621;28;20105;-79
2022/12/22 12:52:39;;;;;;;16.05;4.30;;;7.50;99.90;;;;;;5112527;28;20377;-79
2022/12/22 12:55:28;;;;;;;13.23;3.70;;;7.40;99.90;;;;;;5112826;28;20044;-79
2022/12/22 12:57:57;;;;;;;17.63;5.30;;;7.40;99.90;;;;;;5129396;28;20044;-79
2022/12/22 13:00:33;;;;;;;15.43;5.47;;;7.40;99.90;;;;;;5112430;28;20066;-79
2022/12/22 13:03:07;;;;;;;16.92;5.07;;;7.40;99.90;;;;;;5129281;28;20087;-79
2022/12/22 13:05:52;;;;;;;19.65;5.25;;;7.40;99.90;;;;;;5112377;28;20173;-79
2022/12/22 13:08:20;;;;;;;15.07;5.07;;;7.50;99.90;;;;;;5112118;28;20094;-79
2022/12/22 13:10:53;;;;;;;13.38;4.93;;;7.40;99.90;;;;;;5092763;28;20091;-79
2022/12/22 13:13:25;;;;;;;19.30;5.13;;;7.30;99.90;;;;;;5092208;28;20043;-79
2022/12/22 13:16:01;;;;;;;16.10;4.90;;;7.40;99.90;;;;;;5091802;28;20044;-79
2022/12/22 13:18:28;;;;;;;13.02;4.95;;;7.30;99.90;;;;;;5108535;28;20396;-79
2022/12/22 13:20:59;;;;;;;16.67;5.00;;;7.40;99.90;;;;;;5108369;28;20056;-79
2022/12/22 13:23:35;;;;;;;15.93;5.45;;;7.40;99.90;;;;;;5108374;28;20492;-79
2022/12/22 13:26:05;;;;;;;;;;;7.40;99.90;;;;;;5092114;28;20593;-79
2022/12/22 13:28:33;;;;;;;18.63;5.03;;;7.40;99.90;;;;;;5091627;28;19954;-79
2022/12/22 13:31:17;;;;;;;11.90;4.50;;;7.50;99.90;;;;;;5075609;28;20126;-79
2022/12/22 13:33:44;;;;;;;13.70;4.30;;;7.50;99.90;;;;;;5091465;28;20082;-79
2022/12/22 13:36:19;;;;;;;19.42;4.80;;;7.60;99.90;;;;;;5108378;28;20135;-79
2022/12/22 13:38:46;;;;;;;13.25;4.22;;;7.60;99.90;;;;;;5091310;28;20036;-79
2022/12/22 13:41:19;;;;;;;18.00;5.53;;;7.60;99.90;;;;;;5091218;28;20040;-79
2022/12/22 13:43:52;;;;;;;13.80;5.85;;;7.60;99.90;;;;;;5091340;28;20496;-79
2022/12/22 13:46:19;;;;;;;14.80;4.53;;;7.60;99.90;;;;;;5107991;28;20036;-79
2022/12/22 13:48:48;;;;;;;11.68;4.47;;;7.70;99.90;;;;;;5074505;28;20037;-79
2022/12/22 13:51:36;;;;;;;13.88;4.50;;;7.70;99.90;;;;;;5091124;28;20049;-79
2022/12/22 13:54:27;;;;;;;12.85;4.35;;;7.70;99.90;;;;;;5091387;28;20507;-79
2022/12/22 13:56:55;;;;;;;14.40;4.30;;;7.70;99.90;;;;;;5090892;28;20064;-79
2022/12/22 13:59:44;;;;;;;15.52;4.30;;;7.80;99.90;;;;;;5091053;28;20094;-79
2022/12/22 14:02:11;;;;;;;14.70;4.40;;;7.80;99.90;;;;;;5091136;28;20047;-79
2022/12/22 14:04:40;;;;;;;14.60;4.90;;;7.80;99.90;;;;;;5107579;28;20412;-79
2022/12/22 14:07:20;;;;;;;14.80;5.43;;;7.80;99.90;;;;;;5090875;28;20048;-79
2022/12/22 14:09:49;;;;;;;12.38;4.63;;;7.80;99.90;;;;;;5074921;28;20561;-79
2022/12/22 14:12:27;;;;;;;13.85;5.63;;;7.80;99.90;;;;;;5090810;28;20043;-79
2022/12/22 14:14:55;;;;;;;15.15;5.35;;;7.80;99.90;;;;;;5090634;28;20036;-79
2022/12/22 14:17:39;;;;;;;13.45;5.75;;;7.40;99.90;;;;;;5090732;28;20105;-79
2022/12/22 14:20:15;;;;;;;15.40;4.90;;;7.80;99.90;;;;;;5107270;28;20044;-79
2022/12/22 14:22:52;;;;;;;9.98;5.15;;;7.80;99.90;;;;;;5107225;28;20404;-79
2022/12/22 14:25:23;;;;;;;11.85;5.03;;;7.80;99.90;;;;;;5090761;28;20080;-79
2022/12/22 14:27:52;;;;;;;13.85;5.15;;;7.80;99.90;;;;;;5107432;28;20041;-79
2022/12/22 14:30:25;;;;;;;19.05;8.48;;;7.90;99.90;;;;;;5107170;28;20041;-79
2022/12/22 14:32:53;;;;;;;16.95;6.28;;;7.80;99.90;;;;;;5090674;28;20047;-79
2022/12/22 14:35:20;;;;;;;15.57;5.57;;;7.80;99.90;;;;;;5090687;28;20036;-79
2022/12/22 14:38:11;;;;;;;13.40;6.22;;;7.80;99.90;;;;;;5107014;28;20044;-79
2022/12/22 14:40:40;;;;;;;17.20;4.85;;;7.80;99.90;;;;;;5079915;28;20144;-79
2022/12/22 14:43:18;;;;;;;14.77;5.93;;;7.90;99.90;;;;;;5090634;28;20106;-78
2022/12/22 14:45:47;;;;;;;15.07;5.70;;;7.90;99.90;;;;;;5090389;28;20079;-79
2022/12/22 14:48:33;;;;;;;14.27;6.57;;;7.90;99.90;;;;;;5107196;28;20123;-79
2022/12/22 14:51:02;;;;;;;16.05;7.97;;;7.90;99.90;;;;;;5106763;28;20059;-79
2022/12/22 14:53:49;;;;;;;21.90;10.02;;;7.90;99.90;;;;;;5106926;28;20041;-79
2022/12/22 14:56:17;;;;;;;20.08;9.77;;;7.90;99.90;;;;;;5090157;28;20045;-79
2022/12/22 14:58:46;;;;;;;20.65;8.90;;;7.90;99.90;;;;;;5090169;28;20382;-79
2022/12/22 15:01:27;;;;;;;17.92;6.28;;;7.80;99.90;;;;;;5106842;28;20149;-79
2022/12/22 15:04:18;;;;;;;18.90;4.82;;;7.80;99.90;;;;;;5106749;28;20416;-79
2022/12/22 15:06:48;;;;;;;8.05;2.90;;;7.80;99.90;;;;;;5106730;28;20078;-79
2022/12/22 15:09:15;;;;;;;8.75;3.47;;;7.80;99.90;;;;;;5106929;28;20041;-79
2022/12/22 15:11:44;;;;;;;11.40;3.30;;;7.70;99.90;;;;;;5089296;28;20063;-79
2022/12/22 15:14:14;;;;;;;12.32;3.53;;;7.70;99.90;;;;;;5090066;28;20071;-79
2022/12/22 15:16:41;;;;;;;12.18;3.63;;;7.70;99.90;;;;;;5106552;28;20524;-79
2022/12/22 15:19:12;;;;;;;7.20;3.35;;;7.70;99.90;;;;;;5090396;28;20044;-79
2022/12/22 15:21:39;;;;;;;7.47;3.10;;;7.60;99.90;;;;;;5090582;28;20087;-78
2022/12/22 15:24:11;;;;;;;10.30;3.40;;;7.60;99.90;;;;;;5092304;28;20381;-80
2022/12/22 15:26:38;;;;;;;5.53;2.58;;;7.60;99.90;;;;;;5126610;28;20149;-80
2022/12/22 15:29:05;;;;;;;14.15;4.15;;;7.60;99.90;;;;;;5093242;28;20044;-80
2022/12/22 15:31:32;;;;;;;7.90;3.90;;;7.60;99.90;;;;;;5076528;28;20036;-80
2022/12/22 15:34:01;;;;;;;10.20;4.38;;;7.60;99.90;;;;;;5110009;28;20099;-79
2022/12/22 15:36:28;;;;;;;11.70;3.33;;;7.60;99.90;;;;;;5126593;28;20044;-79
2022/12/22 15:38:55;;;;;;;8.65;3.78;;;7.50;99.90;;;;;;5076427;28;20043;-79
2022/12/22 15:41:23;;;;;;;13.15;4.00;;;7.60;99.90;;;;;;5126450;28;20385;-79
2022/12/22 15:43:49;;;;;;;11.30;4.22;;;7.60;99.90;;;;;;5109747;28;20044;-80
2022/12/22 15:46:17;;;;;;;14.95;5.10;;;7.60;99.90;;;;;;5109841;28;20392;-80
2022/12/22 15:48:45;;;;;;;11.38;4.50;;;7.60;99.90;;;;;;5100362;28;20039;-80
2022/12/22 15:51:24;;;;;;;12.45;4.47;;;7.60;99.90;;;;;;5129883;28;20047;-79
2022/12/22 15:53:52;;;;;;;17.10;6.80;;;7.60;99.90;;;;;;5130193;28;20043;-79
2022/12/22 15:56:30;;;;;;;14.40;4.20;;;7.60;99.90;;;;;;5130157;28;20513;-79
2022/12/22 15:58:57;;;;;;;16.63;6.25;;;7.60;99.90;;;;;;5129884;28;20036;-79
2022/12/22 16:01:23;;;;;;;15.32;4.97;;;7.50;99.90;;;;;;5145098;28;20453;-79
2022/12/22 16:03:50;;;;;;;17.67;5.65;;;7.50;99.90;;;;;;5119129;28;20119;-79
2022/12/22 16:06:18;;;;;;;16.27;6.18;;;7.50;99.90;;;;;;5092560;28;20087;-79
2022/12/22 16:08:50;;;;;;;13.93;5.13;;;7.50;99.90;;;;;;5109669;28;20032;-79
2022/12/22 16:11:19;;;;;;;16.02;5.47;;;7.50;99.90;;;;;;5126784;28;20458;-79
2022/12/22 16:13:49;;;;;;;11.45;4.93;;;7.50;99.90;;;;;;5115254;28;20031;-80
2022/12/22 16:16:16;;;;;;;17.70;6.40;;;7.50;99.90;;;;;;5129717;28;20503;-80
2022/12/22 16:18:42;;;;;;;13.07;5.75;;;7.50;99.90;;;;;;5146953;28;20560;-79
2022/12/22 16:21:17;;;;;;;17.50;6.32;;;7.50;99.90;;;;;;5081208;28;20127;-79
2022/12/22 16:23:47;;;;;;;15.80;6.43;;;7.40;99.90;;;;;;5096328;28;20040;-79
2022/12/22 16:26:19;;;;;;;18.98;6.20;;;7.40;99.90;;;;;;5112872;28;20040;-79
2022/12/22 16:28:46;;;;;;;13.27;6.60;;;7.40;99.90;;;;;;5109480;28;20044;-79
2022/12/22 16:31:21;;;;;;;16.23;7.05;;;7.30;99.90;;;;;;5129561;28;20043;-79
2022/12/22 16:33:48;;;;;;;17.40;6.90;;;7.30;99.90;;;;;;5129663;28;20129;-79
2022/12/22 16:36:16;;;;;;;17.08;6.30;;;7.30;99.90;;;;;;5129682;28;20043;-79
2022/12/22 16:38:44;;;;;;;17.48;6.85;;;7.30;99.90;;;;;;5119778;28;20081;-79
2022/12/22 16:41:22;;;;;;;13.30;6.18;;;7.30;99.90;;;;;;5126379;28;20097;-79
2022/12/22 16:43:51;;;;;;;17.75;7.20;;;6.90;99.90;;;;;;5096066;28;20040;-79
2022/12/22 16:46:20;;;;;;;15.65;7.22;;;7.20;99.90;;;;;;5097017;28;20044;-80
2022/12/22 16:48:48;;;;;;;15.25;7.10;;;7.20;99.90;;;;;;5115052;28;20098;-80
2022/12/22 16:51:33;;;;;;;19.48;6.90;;;7.20;99.90;;;;;;5113540;28;20056;-80
2022/12/22 16:54:00;;;;;;;14.63;7.55;;;7.20;99.90;;;;;;5112651;28;20123;-79